sensor_id;sensor_type;location;lat;lon;timestamp;P1;durP1;ratioP1;P2;durP2;ratioP2
47958;SDS011;33718;50.910;-1.514;2023-05-19T00:00:02;7.78;;;4.38;;
47958;SDS011;33718;50.910;-1.514;2023-05-19T00:05:30;11.57;;;4.47;;
47958;SDS011;33718;50.910;-1.514;2023-05-19T00:07:31;12.55;;;4.47;;
47958;SDS011;33718;50.910;-1.514;2023-05-19T00:09:33;11.55;;;4.72;;
47958;SDS011;33718;50.910;-1.514;2023-05-19T00:11:38;12.32;;;4.53;;
47958;SDS011;33718;50.910;-1.514;2023-05-19T00:13:43;8.15;;;4.30;;
47958;SDS011;33718;50.910;-1.514;2023-05-19T00:15:48;10.15;;;4.13;;
47958;SDS011;33718;50.910;-1.514;2023-05-19T00:17:51;14.98;;;3.70;;
47958;SDS011;33718;50.910;-1.514;2023-05-19T00:19:55;10.57;;;4.88;;
47958;SDS011;33718;50.910;-1.514;2023-05-19T00:21:57;9.13;;;3.90;;
47958;SDS011;33718;50.910;-1.514;2023-05-19T00:23:58;9.52;;;4.45;;
47958;SDS011;33718;50.910;-1.514;2023-05-19T00:26:00;11.65;;;5.15;;
47958;SDS011;33718;50.910;-1.514;2023-05-19T00:28:04;9.80;;;4.75;;
47958;SDS011;33718;50.910;-1.514;2023-05-19T00:30:09;8.70;;;4.13;;
47958;SDS011;33718;50.910;-1.514;2023-05-19T00:32:13;12.80;;;6.45;;
47958;SDS011;33718;50.910;-1.514;2023-05-19T00:34:16;9.40;;;4.30;;
47958;SDS011;33718;50.910;-1.514;2023-05-19T00:36:17;9.95;;;4.05;;
47958;SDS011;33718;50.910;-1.514;2023-05-19T00:38:19;8.48;;;4.50;;
47958;SDS011;33718;50.910;-1.514;2023-05-19T00:40:23;12.60;;;4.13;;
47958;SDS011;33718;50.910;-1.514;2023-05-19T00:42:27;8.50;;;3.45;;
47958;SDS011;33718;50.910;-1.514;2023-05-19T00:44:31;6.80;;;4.00;;
47958;SDS011;33718;50.910;-1.514;2023-05-19T00:46:33;7.90;;;4.18;;
47958;SDS011;33718;50.910;-1.514;2023-05-19T00:48:35;9.73;;;3.97;;
47958;SDS011;33718;50.910;-1.514;2023-05-19T00:50:39;9.25;;;4.43;;
47958;SDS011;33718;50.910;-1.514;2023-05-19T00:52:43;12.82;;;4.07;;
47958;SDS011;33718;50.910;-1.514;2023-05-19T00:54:48;10.40;;;4.90;;
47958;SDS011;33718;50.910;-1.514;2023-05-19T00:56:53;9.90;;;4.60;;
47958;SDS011;33718;50.910;-1.514;2023-05-19T00:58:58;8.48;;;4.20;;
47958;SDS011;33718;50.910;-1.514;2023-05-19T01:01:02;9.63;;;4.53;;
47958;SDS011;33718;50.910;-1.514;2023-05-19T01:03:10;8.07;;;4.85;;
47958;SDS011;33718;50.910;-1.514;2023-05-19T01:05:30;14.25;;;4.22;;
47958;SDS011;33718;50.910;-1.514;2023-05-19T01:07:32;8.23;;;3.95;;
47958;SDS011;33718;50.910;-1.514;2023-05-19T01:09:55;8.93;;;4.43;;
47958;SDS011;33718;50.910;-1.514;2023-05-19T01:12:00;8.15;;;4.22;;
47958;SDS011;33718;50.910;-1.514;2023-05-19T01:14:03;6.78;;;4.00;;
47958;SDS011;33718;50.910;-1.514;2023-05-19T01:16:07;10.70;;;4.55;;
47958;SDS011;33718;50.910;-1.514;2023-05-19T01:18:24;8.88;;;3.63;;
47958;SDS011;33718;50.910;-1.514;2023-05-19T01:20:43;9.60;;;3.75;;
47958;SDS011;33718;50.910;-1.514;2023-05-19T01:23:03;6.30;;;3.85;;
47958;SDS011;33718;50.910;-1.514;2023-05-19T01:32:26;11.43;;;4.97;;
47958;SDS011;33718;50.910;-1.514;2023-05-19T01:34:36;5.97;;;4.53;;
47958;SDS011;33718;50.910;-1.514;2023-05-19T01:36:43;8.27;;;4.07;;
47958;SDS011;33718;50.910;-1.514;2023-05-19T01:38:52;9.10;;;5.53;;
47958;SDS011;33718;50.910;-1.514;2023-05-19T01:40:59;6.97;;;3.60;;
47958;SDS011;33718;50.910;-1.514;2023-05-19T01:43:10;9.52;;;5.30;;
47958;SDS011;33718;50.910;-1.514;2023-05-19T01:45:21;7.75;;;4.40;;
47958;SDS011;33718;50.910;-1.514;2023-05-19T01:47:27;5.32;;;3.67;;
47958;SDS011;33718;50.910;-1.514;2023-05-19T01:49:31;6.65;;;5.43;;
47958;SDS011;33718;50.910;-1.514;2023-05-19T01:51:33;7.03;;;5.05;;
47958;SDS011;33718;50.910;-1.514;2023-05-19T01:53:53;7.55;;;4.38;;
47958;SDS011;33718;50.910;-1.514;2023-05-19T02:02:25;8.90;;;4.88;;
47958;SDS011;33718;50.910;-1.514;2023-05-19T02:05:12;7.32;;;4.40;;
47958;SDS011;33718;50.910;-1.514;2023-05-19T02:09:37;8.75;;;4.68;;
47958;SDS011;33718;50.910;-1.514;2023-05-19T02:11:45;8.70;;;4.43;;
47958;SDS011;33718;50.910;-1.514;2023-05-19T02:13:52;8.65;;;4.53;;
47958;SDS011;33718;50.910;-1.514;2023-05-19T02:16:02;11.00;;;5.25;;
47958;SDS011;33718;50.910;-1.514;2023-05-19T02:20:24;7.65;;;4.80;;
47958;SDS011;33718;50.910;-1.514;2023-05-19T02:22:28;8.32;;;4.38;;
47958;SDS011;33718;50.910;-1.514;2023-05-19T02:24:29;10.60;;;4.78;;
47958;SDS011;33718;50.910;-1.514;2023-05-19T02:26:50;8.25;;;4.93;;
47958;SDS011;33718;50.910;-1.514;2023-05-19T02:28:55;7.20;;;5.80;;
47958;SDS011;33718;50.910;-1.514;2023-05-19T02:30:56;7.38;;;4.88;;
47958;SDS011;33718;50.910;-1.514;2023-05-19T02:32:57;11.90;;;4.43;;
47958;SDS011;33718;50.910;-1.514;2023-05-19T02:34:59;6.90;;;4.93;;
47958;SDS011;33718;50.910;-1.514;2023-05-19T02:37:04;8.18;;;5.00;;
47958;SDS011;33718;50.910;-1.514;2023-05-19T02:39:05;11.20;;;5.72;;
47958;SDS011;33718;50.910;-1.514;2023-05-19T02:41:25;11.07;;;5.40;;
47958;SDS011;33718;50.910;-1.514;2023-05-19T02:43:27;7.85;;;4.35;;
47958;SDS011;33718;50.910;-1.514;2023-05-19T02:45:30;7.75;;;4.50;;
47958;SDS011;33718;50.910;-1.514;2023-05-19T02:47:34;6.97;;;4.15;;
47958;SDS011;33718;50.910;-1.514;2023-05-19T02:49:37;10.98;;;4.95;;
47958;SDS011;33718;50.910;-1.514;2023-05-19T02:53:42;13.82;;;5.20;;
47958;SDS011;33718;50.910;-1.514;2023-05-19T02:55:50;8.65;;;5.20;;
47958;SDS011;33718;50.910;-1.514;2023-05-19T02:58:10;10.10;;;4.88;;
47958;SDS011;33718;50.910;-1.514;2023-05-19T03:00:14;9.40;;;5.15;;
47958;SDS011;33718;50.910;-1.514;2023-05-19T03:02:19;10.10;;;5.60;;
47958;SDS011;33718;50.910;-1.514;2023-05-19T03:04:20;8.93;;;5.22;;
47958;SDS011;33718;50.910;-1.514;2023-05-19T03:06:22;9.77;;;5.32;;
47958;SDS011;33718;50.910;-1.514;2023-05-19T03:08:23;10.77;;;5.75;;
47958;SDS011;33718;50.910;-1.514;2023-05-19T03:12:29;7.38;;;4.70;;
47958;SDS011;33718;50.910;-1.514;2023-05-19T03:14:34;10.68;;;5.43;;
47958;SDS011;33718;50.910;-1.514;2023-05-19T03:16:40;8.00;;;4.65;;
47958;SDS011;33718;50.910;-1.514;2023-05-19T03:18:45;8.32;;;4.90;;
47958;SDS011;33718;50.910;-1.514;2023-05-19T03:22:53;9.70;;;5.05;;
47958;SDS011;33718;50.910;-1.514;2023-05-19T03:24:58;10.50;;;5.55;;
47958;SDS011;33718;50.910;-1.514;2023-05-19T03:26:59;9.57;;;5.40;;
47958;SDS011;33718;50.910;-1.514;2023-05-19T03:29:04;10.20;;;5.05;;
47958;SDS011;33718;50.910;-1.514;2023-05-19T03:31:05;11.20;;;5.57;;
47958;SDS011;33718;50.910;-1.514;2023-05-19T03:33:06;9.60;;;4.72;;
47958;SDS011;33718;50.910;-1.514;2023-05-19T03:35:08;7.30;;;5.90;;
47958;SDS011;33718;50.910;-1.514;2023-05-19T03:37:10;8.43;;;4.63;;
47958;SDS011;33718;50.910;-1.514;2023-05-19T03:39:15;12.73;;;6.10;;
47958;SDS011;33718;50.910;-1.514;2023-05-19T03:41:17;8.32;;;6.00;;
47958;SDS011;33718;50.910;-1.514;2023-05-19T03:43:21;7.93;;;5.00;;
47958;SDS011;33718;50.910;-1.514;2023-05-19T03:45:23;12.30;;;6.00;;
47958;SDS011;33718;50.910;-1.514;2023-05-19T03:47:24;10.00;;;5.43;;
47958;SDS011;33718;50.910;-1.514;2023-05-19T03:49:26;7.70;;;4.70;;
47958;SDS011;33718;50.910;-1.514;2023-05-19T03:51:30;9.32;;;5.78;;
47958;SDS011;33718;50.910;-1.514;2023-05-19T03:53:31;8.45;;;5.20;;
47958;SDS011;33718;50.910;-1.514;2023-05-19T03:55:33;12.63;;;5.20;;
47958;SDS011;33718;50.910;-1.514;2023-05-19T03:57:37;8.48;;;5.90;;
47958;SDS011;33718;50.910;-1.514;2023-05-19T03:59:39;8.73;;;4.57;;
47958;SDS011;33718;50.910;-1.514;2023-05-19T04:01:41;9.85;;;5.07;;
47958;SDS011;33718;50.910;-1.514;2023-05-19T04:03:45;5.68;;;4.55;;
47958;SDS011;33718;50.910;-1.514;2023-05-19T04:06:06;8.20;;;5.18;;
47958;SDS011;33718;50.910;-1.514;2023-05-19T04:08:14;5.97;;;4.53;;
47958;SDS011;33718;50.910;-1.514;2023-05-19T04:10:15;8.85;;;4.90;;
47958;SDS011;33718;50.910;-1.514;2023-05-19T04:12:17;5.68;;;4.63;;
47958;SDS011;33718;50.910;-1.514;2023-05-19T04:14:21;6.43;;;4.47;;
47958;SDS011;33718;50.910;-1.514;2023-05-19T04:16:26;9.35;;;5.40;;
47958;SDS011;33718;50.910;-1.514;2023-05-19T04:18:28;10.48;;;5.65;;
47958;SDS011;33718;50.910;-1.514;2023-05-19T04:20:29;12.40;;;5.50;;
47958;SDS011;33718;50.910;-1.514;2023-05-19T04:22:31;12.60;;;6.60;;
47958;SDS011;33718;50.910;-1.514;2023-05-19T04:24:33;9.65;;;5.80;;
47958;SDS011;33718;50.910;-1.514;2023-05-19T04:26:39;11.00;;;5.47;;
47958;SDS011;33718;50.910;-1.514;2023-05-19T04:28:48;11.48;;;4.50;;
47958;SDS011;33718;50.910;-1.514;2023-05-19T04:30:49;10.52;;;4.95;;
47958;SDS011;33718;50.910;-1.514;2023-05-19T04:32:52;8.05;;;4.47;;
47958;SDS011;33718;50.910;-1.514;2023-05-19T04:34:56;7.13;;;4.18;;
47958;SDS011;33718;50.910;-1.514;2023-05-19T04:37:02;6.07;;;4.13;;
47958;SDS011;33718;50.910;-1.514;2023-05-19T04:39:10;9.63;;;4.82;;
47958;SDS011;33718;50.910;-1.514;2023-05-19T04:41:12;7.53;;;4.45;;
47958;SDS011;33718;50.910;-1.514;2023-05-19T04:43:18;13.15;;;5.13;;
47958;SDS011;33718;50.910;-1.514;2023-05-19T04:45:22;8.65;;;5.43;;
47958;SDS011;33718;50.910;-1.514;2023-05-19T04:47:30;9.00;;;5.72;;
47958;SDS011;33718;50.910;-1.514;2023-05-19T04:49:38;8.52;;;5.18;;
47958;SDS011;33718;50.910;-1.514;2023-05-19T04:51:44;7.40;;;5.50;;
47958;SDS011;33718;50.910;-1.514;2023-05-19T04:54:04;6.95;;;4.60;;
47958;SDS011;33718;50.910;-1.514;2023-05-19T04:56:06;9.20;;;5.03;;
47958;SDS011;33718;50.910;-1.514;2023-05-19T04:58:08;10.55;;;5.47;;
47958;SDS011;33718;50.910;-1.514;2023-05-19T05:00:09;6.43;;;5.00;;
47958;SDS011;33718;50.910;-1.514;2023-05-19T05:02:14;11.63;;;5.80;;
47958;SDS011;33718;50.910;-1.514;2023-05-19T05:04:19;8.40;;;6.03;;
47958;SDS011;33718;50.910;-1.514;2023-05-19T05:06:40;9.80;;;5.20;;
47958;SDS011;33718;50.910;-1.514;2023-05-19T05:08:50;6.13;;;5.53;;
47958;SDS011;33718;50.910;-1.514;2023-05-19T05:10:55;7.40;;;5.07;;
47958;SDS011;33718;50.910;-1.514;2023-05-19T05:13:00;5.90;;;5.00;;
47958;SDS011;33718;50.910;-1.514;2023-05-19T05:15:05;6.97;;;4.70;;
47958;SDS011;33718;50.910;-1.514;2023-05-19T05:17:10;10.93;;;5.63;;
47958;SDS011;33718;50.910;-1.514;2023-05-19T05:19:16;8.05;;;4.88;;
47958;SDS011;33718;50.910;-1.514;2023-05-19T05:21:21;6.75;;;5.05;;
47958;SDS011;33718;50.910;-1.514;2023-05-19T05:23:26;8.23;;;5.38;;
47958;SDS011;33718;50.910;-1.514;2023-05-19T05:25:32;8.20;;;5.65;;
47958;SDS011;33718;50.910;-1.514;2023-05-19T05:27:37;12.60;;;5.40;;
47958;SDS011;33718;50.910;-1.514;2023-05-19T05:29:41;9.00;;;6.00;;
47958;SDS011;33718;50.910;-1.514;2023-05-19T05:31:48;7.93;;;5.30;;
47958;SDS011;33718;50.910;-1.514;2023-05-19T05:33:51;7.95;;;5.22;;
47958;SDS011;33718;50.910;-1.514;2023-05-19T05:35:52;10.68;;;5.93;;
47958;SDS011;33718;50.910;-1.514;2023-05-19T05:37:54;10.93;;;5.43;;
47958;SDS011;33718;50.910;-1.514;2023-05-19T05:39:58;7.60;;;4.57;;
47958;SDS011;33718;50.910;-1.514;2023-05-19T05:42:03;6.07;;;5.07;;
47958;SDS011;33718;50.910;-1.514;2023-05-19T05:44:06;6.55;;;4.65;;
47958;SDS011;33718;50.910;-1.514;2023-05-19T05:46:13;8.30;;;5.03;;
47958;SDS011;33718;50.910;-1.514;2023-05-19T05:48:33;9.77;;;5.65;;
47958;SDS011;33718;50.910;-1.514;2023-05-19T05:50:35;10.93;;;5.32;;
47958;SDS011;33718;50.910;-1.514;2023-05-19T05:52:36;10.27;;;5.97;;
47958;SDS011;33718;50.910;-1.514;2023-05-19T05:54:43;10.63;;;5.43;;
47958;SDS011;33718;50.910;-1.514;2023-05-19T05:56:47;12.10;;;5.40;;
47958;SDS011;33718;50.910;-1.514;2023-05-19T05:58:50;8.68;;;5.30;;
47958;SDS011;33718;50.910;-1.514;2023-05-19T06:00:56;10.70;;;6.05;;
47958;SDS011;33718;50.910;-1.514;2023-05-19T06:03:01;10.10;;;5.65;;
47958;SDS011;33718;50.910;-1.514;2023-05-19T06:05:03;8.20;;;4.85;;
47958;SDS011;33718;50.910;-1.514;2023-05-19T06:07:06;13.45;;;6.35;;
47958;SDS011;33718;50.910;-1.514;2023-05-19T06:09:08;10.48;;;6.30;;
47958;SDS011;33718;50.910;-1.514;2023-05-19T06:11:09;11.00;;;6.00;;
47958;SDS011;33718;50.910;-1.514;2023-05-19T06:13:12;6.05;;;5.32;;
47958;SDS011;33718;50.910;-1.514;2023-05-19T06:15:15;12.18;;;6.43;;
47958;SDS011;33718;50.910;-1.514;2023-05-19T06:17:21;13.63;;;6.47;;
47958;SDS011;33718;50.910;-1.514;2023-05-19T06:19:41;13.00;;;6.85;;
47958;SDS011;33718;50.910;-1.514;2023-05-19T06:21:46;15.13;;;6.47;;
47958;SDS011;33718;50.910;-1.514;2023-05-19T06:23:53;17.98;;;7.43;;
47958;SDS011;33718;50.910;-1.514;2023-05-19T06:25:57;15.57;;;8.27;;
47958;SDS011;33718;50.910;-1.514;2023-05-19T06:28:01;14.60;;;7.78;;
47958;SDS011;33718;50.910;-1.514;2023-05-19T06:30:04;16.77;;;7.35;;
47958;SDS011;33718;50.910;-1.514;2023-05-19T06:32:10;22.08;;;8.55;;
47958;SDS011;33718;50.910;-1.514;2023-05-19T06:34:11;15.35;;;8.82;;
47958;SDS011;33718;50.910;-1.514;2023-05-19T06:36:17;15.52;;;7.82;;
47958;SDS011;33718;50.910;-1.514;2023-05-19T06:38:21;16.70;;;8.25;;
47958;SDS011;33718;50.910;-1.514;2023-05-19T06:40:23;14.23;;;8.30;;
47958;SDS011;33718;50.910;-1.514;2023-05-19T06:42:29;15.55;;;6.93;;
47958;SDS011;33718;50.910;-1.514;2023-05-19T06:44:32;15.63;;;8.25;;
47958;SDS011;33718;50.910;-1.514;2023-05-19T06:46:37;14.07;;;8.00;;
47958;SDS011;33718;50.910;-1.514;2023-05-19T06:48:38;15.95;;;8.38;;
47958;SDS011;33718;50.910;-1.514;2023-05-19T06:50:42;14.32;;;8.18;;
47958;SDS011;33718;50.910;-1.514;2023-05-19T06:52:44;13.50;;;9.52;;
47958;SDS011;33718;50.910;-1.514;2023-05-19T06:55:06;18.70;;;10.10;;
47958;SDS011;33718;50.910;-1.514;2023-05-19T06:57:07;18.10;;;9.25;;
47958;SDS011;33718;50.910;-1.514;2023-05-19T06:59:09;17.48;;;9.88;;
47958;SDS011;33718;50.910;-1.514;2023-05-19T07:01:11;16.40;;;10.20;;
47958;SDS011;33718;50.910;-1.514;2023-05-19T07:03:12;16.42;;;10.15;;
47958;SDS011;33718;50.910;-1.514;2023-05-19T07:05:14;21.98;;;9.95;;
47958;SDS011;33718;50.910;-1.514;2023-05-19T07:07:16;16.88;;;8.88;;
47958;SDS011;33718;50.910;-1.514;2023-05-19T07:09:18;16.55;;;7.97;;
47958;SDS011;33718;50.910;-1.514;2023-05-19T07:11:25;13.77;;;7.03;;
47958;SDS011;33718;50.910;-1.514;2023-05-19T07:13:27;13.88;;;7.43;;
47958;SDS011;33718;50.910;-1.514;2023-05-19T07:15:31;11.18;;;6.40;;
47958;SDS011;33718;50.910;-1.514;2023-05-19T07:17:39;14.77;;;7.05;;
47958;SDS011;33718;50.910;-1.514;2023-05-19T07:19:50;15.75;;;7.05;;
47958;SDS011;33718;50.910;-1.514;2023-05-19T07:22:00;12.73;;;6.60;;
47958;SDS011;33718;50.910;-1.514;2023-05-19T07:24:08;11.02;;;6.75;;
47958;SDS011;33718;50.910;-1.514;2023-05-19T07:26:16;11.02;;;5.80;;
47958;SDS011;33718;50.910;-1.514;2023-05-19T07:28:20;10.68;;;5.47;;
47958;SDS011;33718;50.910;-1.514;2023-05-19T07:30:27;15.00;;;5.70;;
47958;SDS011;33718;50.910;-1.514;2023-05-19T07:32:34;8.60;;;5.10;;
47958;SDS011;33718;50.910;-1.514;2023-05-19T07:34:39;9.30;;;5.13;;
47958;SDS011;33718;50.910;-1.514;2023-05-19T07:36:45;14.32;;;5.13;;
47958;SDS011;33718;50.910;-1.514;2023-05-19T07:38:49;13.48;;;4.95;;
47958;SDS011;33718;50.910;-1.514;2023-05-19T07:40:53;10.20;;;5.03;;
47958;SDS011;33718;50.910;-1.514;2023-05-19T07:43:00;10.65;;;5.13;;
47958;SDS011;33718;50.910;-1.514;2023-05-19T07:45:07;11.27;;;5.57;;
47958;SDS011;33718;50.910;-1.514;2023-05-19T07:47:11;10.95;;;4.82;;
47958;SDS011;33718;50.910;-1.514;2023-05-19T07:49:33;10.10;;;5.68;;
47958;SDS011;33718;50.910;-1.514;2023-05-19T07:51:39;8.02;;;5.30;;
47958;SDS011;33718;50.910;-1.514;2023-05-19T07:53:47;13.68;;;5.45;;
47958;SDS011;33718;50.910;-1.514;2023-05-19T07:55:51;9.90;;;5.15;;
47958;SDS011;33718;50.910;-1.514;2023-05-19T07:58:14;8.63;;;5.18;;
47958;SDS011;33718;50.910;-1.514;2023-05-19T08:00:21;16.45;;;6.40;;
47958;SDS011;33718;50.910;-1.514;2023-05-19T08:02:25;11.90;;;5.63;;
47958;SDS011;33718;50.910;-1.514;2023-05-19T08:04:29;13.95;;;5.63;;
47958;SDS011;33718;50.910;-1.514;2023-05-19T08:06:35;16.40;;;6.65;;
47958;SDS011;33718;50.910;-1.514;2023-05-19T08:08:39;11.25;;;5.78;;
47958;SDS011;33718;50.910;-1.514;2023-05-19T08:10:46;10.65;;;6.07;;
47958;SDS011;33718;50.910;-1.514;2023-05-19T08:12:50;11.02;;;6.00;;
47958;SDS011;33718;50.910;-1.514;2023-05-19T08:14:54;13.55;;;7.25;;
47958;SDS011;33718;50.910;-1.514;2023-05-19T08:17:02;10.95;;;6.13;;
47958;SDS011;33718;50.910;-1.514;2023-05-19T08:19:05;13.65;;;7.57;;
47958;SDS011;33718;50.910;-1.514;2023-05-19T08:21:12;17.27;;;8.02;;
47958;SDS011;33718;50.910;-1.514;2023-05-19T08:23:16;13.80;;;6.57;;
47958;SDS011;33718;50.910;-1.514;2023-05-19T08:25:23;10.95;;;6.82;;
47958;SDS011;33718;50.910;-1.514;2023-05-19T08:27:30;15.48;;;8.05;;
47958;SDS011;33718;50.910;-1.514;2023-05-19T08:29:34;14.57;;;6.82;;
47958;SDS011;33718;50.910;-1.514;2023-05-19T08:31:37;18.42;;;8.15;;
47958;SDS011;33718;50.910;-1.514;2023-05-19T08:33:39;11.48;;;6.35;;
47958;SDS011;33718;50.910;-1.514;2023-05-19T08:35:41;14.65;;;6.95;;
47958;SDS011;33718;50.910;-1.514;2023-05-19T08:37:46;16.75;;;7.43;;
47958;SDS011;33718;50.910;-1.514;2023-05-19T08:39:47;11.65;;;7.18;;
47958;SDS011;33718;50.910;-1.514;2023-05-19T08:41:52;13.50;;;6.38;;
47958;SDS011;33718;50.910;-1.514;2023-05-19T08:43:57;14.60;;;7.15;;
47958;SDS011;33718;50.910;-1.514;2023-05-19T08:46:02;14.40;;;6.65;;
47958;SDS011;33718;50.910;-1.514;2023-05-19T08:48:06;17.70;;;6.88;;
47958;SDS011;33718;50.910;-1.514;2023-05-19T08:50:28;13.23;;;6.45;;
47958;SDS011;33718;50.910;-1.514;2023-05-19T08:52:50;15.30;;;6.78;;
47958;SDS011;33718;50.910;-1.514;2023-05-19T08:57:04;10.77;;;5.70;;
47958;SDS011;33718;50.910;-1.514;2023-05-19T08:59:10;11.65;;;6.22;;
47958;SDS011;33718;50.910;-1.514;2023-05-19T09:01:15;12.45;;;5.75;;
47958;SDS011;33718;50.910;-1.514;2023-05-19T09:03:19;11.40;;;6.22;;
47958;SDS011;33718;50.910;-1.514;2023-05-19T09:05:24;13.80;;;6.25;;
47958;SDS011;33718;50.910;-1.514;2023-05-19T09:07:26;12.05;;;5.45;;
47958;SDS011;33718;50.910;-1.514;2023-05-19T09:09:48;12.05;;;7.07;;
47958;SDS011;33718;50.910;-1.514;2023-05-19T09:11:49;9.23;;;5.70;;
47958;SDS011;33718;50.910;-1.514;2023-05-19T09:14:09;11.43;;;6.30;;
47958;SDS011;33718;50.910;-1.514;2023-05-19T09:16:15;11.60;;;6.18;;
47958;SDS011;33718;50.910;-1.514;2023-05-19T09:18:18;12.77;;;5.57;;
47958;SDS011;33718;50.910;-1.514;2023-05-19T09:20:22;11.60;;;5.38;;
47958;SDS011;33718;50.910;-1.514;2023-05-19T09:22:26;9.38;;;5.15;;
47958;SDS011;33718;50.910;-1.514;2023-05-19T09:24:28;15.32;;;4.63;;
47958;SDS011;33718;50.910;-1.514;2023-05-19T09:26:37;14.98;;;4.68;;
47958;SDS011;33718;50.910;-1.514;2023-05-19T09:28:41;8.52;;;4.50;;
47958;SDS011;33718;50.910;-1.514;2023-05-19T09:30:43;11.70;;;4.90;;
47958;SDS011;33718;50.910;-1.514;2023-05-19T09:32:47;9.27;;;4.35;;
47958;SDS011;33718;50.910;-1.514;2023-05-19T09:34:49;8.75;;;5.47;;
47958;SDS011;33718;50.910;-1.514;2023-05-19T09:36:51;9.75;;;5.30;;
47958;SDS011;33718;50.910;-1.514;2023-05-19T09:38:56;13.80;;;5.88;;
47958;SDS011;33718;50.910;-1.514;2023-05-19T09:41:01;11.25;;;5.43;;
47958;SDS011;33718;50.910;-1.514;2023-05-19T09:43:06;10.15;;;5.68;;
47958;SDS011;33718;50.910;-1.514;2023-05-19T09:45:08;9.70;;;5.20;;
47958;SDS011;33718;50.910;-1.514;2023-05-19T09:47:13;8.27;;;4.65;;
47958;SDS011;33718;50.910;-1.514;2023-05-19T09:49:23;11.48;;;5.38;;
47958;SDS011;33718;50.910;-1.514;2023-05-19T09:51:44;12.68;;;4.93;;
47958;SDS011;33718;50.910;-1.514;2023-05-19T09:53:45;9.82;;;4.90;;
47958;SDS011;33718;50.910;-1.514;2023-05-19T09:55:47;11.52;;;5.65;;
47958;SDS011;33718;50.910;-1.514;2023-05-19T09:57:55;10.20;;;5.07;;
47958;SDS011;33718;50.910;-1.514;2023-05-19T09:59:57;10.50;;;5.97;;
47958;SDS011;33718;50.910;-1.514;2023-05-19T10:02:00;10.32;;;5.03;;
47958;SDS011;33718;50.910;-1.514;2023-05-19T10:04:05;11.18;;;5.75;;
47958;SDS011;33718;50.910;-1.514;2023-05-19T10:06:07;11.20;;;5.63;;
47958;SDS011;33718;50.910;-1.514;2023-05-19T10:08:10;15.05;;;6.10;;
47958;SDS011;33718;50.910;-1.514;2023-05-19T10:10:15;12.00;;;5.95;;
47958;SDS011;33718;50.910;-1.514;2023-05-19T10:12:19;16.20;;;6.15;;
47958;SDS011;33718;50.910;-1.514;2023-05-19T10:14:32;13.05;;;6.00;;
47958;SDS011;33718;50.910;-1.514;2023-05-19T10:16:37;18.80;;;6.82;;
47958;SDS011;33718;50.910;-1.514;2023-05-19T10:18:38;10.45;;;5.85;;
47958;SDS011;33718;50.910;-1.514;2023-05-19T10:20:40;11.45;;;6.20;;
47958;SDS011;33718;50.910;-1.514;2023-05-19T10:22:43;9.02;;;5.22;;
47958;SDS011;33718;50.910;-1.514;2023-05-19T10:24:45;10.65;;;5.85;;
47958;SDS011;33718;50.910;-1.514;2023-05-19T10:28:51;9.98;;;4.95;;
47958;SDS011;33718;50.910;-1.514;2023-05-19T10:30:53;11.18;;;5.25;;
47958;SDS011;33718;50.910;-1.514;2023-05-19T10:33:00;8.90;;;4.82;;
47958;SDS011;33718;50.910;-1.514;2023-05-19T10:39:32;11.35;;;5.70;;
47958;SDS011;33718;50.910;-1.514;2023-05-19T10:43:50;10.43;;;5.28;;
47958;SDS011;33718;50.910;-1.514;2023-05-19T10:45:57;9.25;;;5.25;;
47958;SDS011;33718;50.910;-1.514;2023-05-19T10:47:59;7.85;;;5.07;;
47958;SDS011;33718;50.910;-1.514;2023-05-19T10:50:00;14.88;;;5.82;;
47958;SDS011;33718;50.910;-1.514;2023-05-19T10:52:02;10.13;;;6.28;;
47958;SDS011;33718;50.910;-1.514;2023-05-19T10:54:07;9.00;;;5.05;;
47958;SDS011;33718;50.910;-1.514;2023-05-19T10:56:30;11.55;;;5.03;;
47958;SDS011;33718;50.910;-1.514;2023-05-19T11:00:47;14.40;;;5.30;;
47958;SDS011;33718;50.910;-1.514;2023-05-19T11:03:15;8.15;;;4.68;;
47958;SDS011;33718;50.910;-1.514;2023-05-19T11:05:26;15.25;;;4.88;;
47958;SDS011;33718;50.910;-1.514;2023-05-19T11:07:31;12.35;;;5.15;;
47958;SDS011;33718;50.910;-1.514;2023-05-19T11:09:40;9.98;;;5.30;;
47958;SDS011;33718;50.910;-1.514;2023-05-19T11:11:52;9.77;;;5.32;;
47958;SDS011;33718;50.910;-1.514;2023-05-19T11:13:54;9.52;;;5.25;;
47958;SDS011;33718;50.910;-1.514;2023-05-19T11:15:56;11.35;;;5.30;;
47958;SDS011;33718;50.910;-1.514;2023-05-19T11:17:58;13.48;;;5.47;;
47958;SDS011;33718;50.910;-1.514;2023-05-19T11:20:05;11.45;;;5.38;;
47958;SDS011;33718;50.910;-1.514;2023-05-19T11:22:08;8.75;;;5.25;;
47958;SDS011;33718;50.910;-1.514;2023-05-19T11:24:31;9.43;;;5.32;;
47958;SDS011;33718;50.910;-1.514;2023-05-19T11:26:40;13.32;;;5.13;;
47958;SDS011;33718;50.910;-1.514;2023-05-19T11:28:48;15.95;;;6.15;;
47958;SDS011;33718;50.910;-1.514;2023-05-19T11:30:55;10.93;;;5.07;;
47958;SDS011;33718;50.910;-1.514;2023-05-19T11:33:00;12.63;;;5.55;;
47958;SDS011;33718;50.910;-1.514;2023-05-19T11:35:05;13.07;;;5.70;;
47958;SDS011;33718;50.910;-1.514;2023-05-19T11:37:11;14.57;;;6.15;;
47958;SDS011;33718;50.910;-1.514;2023-05-19T11:39:12;17.58;;;5.63;;
47958;SDS011;33718;50.910;-1.514;2023-05-19T11:41:15;11.32;;;6.20;;
47958;SDS011;33718;50.910;-1.514;2023-05-19T11:43:23;12.32;;;5.30;;
47958;SDS011;33718;50.910;-1.514;2023-05-19T11:45:25;8.75;;;5.03;;
47958;SDS011;33718;50.910;-1.514;2023-05-19T11:47:29;11.60;;;6.38;;
47958;SDS011;33718;50.910;-1.514;2023-05-19T11:50:06;18.65;;;6.13;;
47958;SDS011;33718;50.910;-1.514;2023-05-19T11:52:14;12.02;;;5.75;;
47958;SDS011;33718;50.910;-1.514;2023-05-19T11:54:18;12.18;;;5.45;;
47958;SDS011;33718;50.910;-1.514;2023-05-19T11:56:23;13.00;;;6.35;;
47958;SDS011;33718;50.910;-1.514;2023-05-19T11:58:26;11.80;;;5.47;;
47958;SDS011;33718;50.910;-1.514;2023-05-19T12:00:35;14.23;;;5.78;;
47958;SDS011;33718;50.910;-1.514;2023-05-19T12:02:42;20.50;;;6.18;;
47958;SDS011;33718;50.910;-1.514;2023-05-19T12:04:47;17.45;;;6.13;;
47958;SDS011;33718;50.910;-1.514;2023-05-19T12:06:58;17.38;;;6.40;;
47958;SDS011;33718;50.910;-1.514;2023-05-19T12:09:03;18.30;;;5.60;;
47958;SDS011;33718;50.910;-1.514;2023-05-19T12:11:06;16.88;;;6.95;;
47958;SDS011;33718;50.910;-1.514;2023-05-19T12:13:10;12.70;;;6.15;;
47958;SDS011;33718;50.910;-1.514;2023-05-19T12:15:19;16.27;;;7.10;;
47958;SDS011;33718;50.910;-1.514;2023-05-19T12:17:21;14.48;;;5.43;;
47958;SDS011;33718;50.910;-1.514;2023-05-19T12:19:46;12.88;;;5.68;;
47958;SDS011;33718;50.910;-1.514;2023-05-19T12:21:48;17.77;;;7.03;;
47958;SDS011;33718;50.910;-1.514;2023-05-19T12:23:49;16.98;;;5.82;;
47958;SDS011;33718;50.910;-1.514;2023-05-19T12:25:51;13.27;;;5.95;;
47958;SDS011;33718;50.910;-1.514;2023-05-19T12:27:56;12.27;;;5.50;;
47958;SDS011;33718;50.910;-1.514;2023-05-19T12:30:01;11.65;;;4.90;;
47958;SDS011;33718;50.910;-1.514;2023-05-19T12:32:03;11.52;;;5.63;;
47958;SDS011;33718;50.910;-1.514;2023-05-19T12:34:05;12.35;;;5.57;;
47958;SDS011;33718;50.910;-1.514;2023-05-19T12:36:07;12.70;;;5.35;;
47958;SDS011;33718;50.910;-1.514;2023-05-19T12:38:13;16.63;;;6.25;;
47958;SDS011;33718;50.910;-1.514;2023-05-19T12:40:18;13.10;;;6.30;;
47958;SDS011;33718;50.910;-1.514;2023-05-19T12:42:42;11.98;;;5.20;;
47958;SDS011;33718;50.910;-1.514;2023-05-19T12:44:48;13.98;;;6.30;;
47958;SDS011;33718;50.910;-1.514;2023-05-19T12:46:58;14.70;;;6.25;;
47958;SDS011;33718;50.910;-1.514;2023-05-19T12:49:00;17.63;;;6.70;;
47958;SDS011;33718;50.910;-1.514;2023-05-19T12:51:02;15.27;;;6.43;;
47958;SDS011;33718;50.910;-1.514;2023-05-19T12:53:11;15.40;;;6.47;;
47958;SDS011;33718;50.910;-1.514;2023-05-19T12:55:16;13.45;;;6.35;;
47958;SDS011;33718;50.910;-1.514;2023-05-19T12:57:24;14.45;;;5.50;;
47958;SDS011;33718;50.910;-1.514;2023-05-19T12:59:32;14.10;;;6.07;;